createdAt,value
2023-01-21T00:01:35.822Z,12.10
2023-01-21T00:04:05.416Z,14.23
2023-01-21T00:06:33.338Z,10.73
2023-01-21T00:09:00.946Z,12.30
2023-01-21T00:11:28.860Z,10.43
2023-01-21T00:13:56.833Z,11.27
2023-01-21T00:16:24.622Z,10.30
2023-01-21T00:18:52.202Z,10.83
2023-01-21T00:21:22.530Z,10.43
2023-01-21T00:23:50.261Z,11.70
2023-01-21T00:26:17.916Z,10.90
2023-01-21T00:28:46.844Z,10.57
2023-01-21T00:31:14.894Z,9.37
2023-01-21T00:33:42.784Z,10.90
2023-01-21T00:36:11.971Z,11.70
2023-01-21T00:38:41.096Z,10.40
2023-01-21T00:41:10.312Z,9.97
2023-01-21T00:43:39.516Z,9.83
2023-01-21T00:46:08.110Z,10.30
2023-01-21T00:48:35.979Z,9.43
2023-01-21T00:51:03.959Z,10.33
2023-01-21T00:53:32.689Z,10.00
2023-01-21T00:56:02.337Z,9.83
2023-01-21T00:58:30.652Z,10.13
2023-01-21T01:01:03.623Z,9.50
2023-01-21T01:03:31.675Z,9.70
2023-01-21T01:06:03.005Z,10.10
2023-01-21T01:08:31.211Z,10.73
2023-01-21T01:10:58.811Z,10.20
2023-01-21T01:13:28.570Z,11.40
2023-01-21T01:15:58.145Z,11.03
2023-01-21T01:18:26.866Z,10.50
2023-01-21T01:20:54.471Z,10.63
2023-01-21T01:23:22.864Z,9.63
2023-01-21T01:25:55.411Z,10.30
2023-01-21T01:28:23.597Z,10.20
2023-01-21T01:30:52.869Z,10.97
2023-01-21T01:33:21.021Z,11.07
2023-01-21T01:35:48.989Z,13.00
2023-01-21T01:38:16.972Z,11.23
2023-01-21T01:40:45.343Z,12.60
2023-01-21T01:43:16.067Z,12.37
2023-01-21T01:45:43.711Z,13.60
2023-01-21T01:48:15.036Z,12.50
2023-01-21T01:50:43.231Z,11.63
2023-01-21T01:53:11.873Z,11.67
2023-01-21T01:55:40.024Z,11.37
2023-01-21T01:58:09.183Z,10.80
2023-01-21T02:00:38.211Z,11.30
2023-01-21T02:03:29.058Z,11.03
2023-01-21T02:05:58.116Z,11.90
2023-01-21T02:08:26.934Z,12.20
2023-01-21T02:10:56.455Z,11.10
2023-01-21T02:13:24.520Z,11.87
2023-01-21T02:15:58.465Z,12.27
2023-01-21T02:18:31.015Z,13.33
2023-01-21T02:21:20.063Z,12.23
2023-01-21T02:24:00.357Z,13.00
2023-01-21T02:26:35.331Z,13.30
2023-01-21T02:29:20.830Z,13.60
2023-01-21T02:31:59.079Z,12.80
2023-01-21T02:34:33.624Z,13.83
2023-01-21T02:37:05.786Z,13.53
2023-01-21T02:39:43.002Z,12.73
2023-01-21T02:42:13.914Z,12.80
2023-01-21T02:44:42.282Z,12.43
2023-01-21T02:47:15.574Z,12.60
2023-01-21T02:49:47.001Z,13.70
2023-01-21T02:52:18.755Z,13.27
2023-01-21T02:54:50.880Z,13.50
2023-01-21T02:57:21.399Z,11.70
2023-01-21T02:59:50.292Z,12.13
2023-01-21T03:02:22.719Z,12.87
2023-01-21T03:04:59.355Z,12.57
2023-01-21T03:07:30.127Z,11.87
2023-01-21T03:10:00.939Z,11.97
2023-01-21T03:12:31.705Z,12.67
2023-01-21T03:15:20.666Z,12.27
2023-01-21T03:17:51.966Z,11.63
2023-01-21T03:20:23.302Z,12.40
2023-01-21T03:22:54.397Z,12.80
2023-01-21T03:25:23.053Z,13.00
2023-01-21T03:27:50.874Z,12.13
2023-01-21T03:30:19.574Z,11.83
2023-01-21T03:32:49.208Z,13.03
2023-01-21T03:38:14.775Z,11.70
2023-01-21T03:40:44.652Z,11.27
2023-01-21T03:43:12.346Z,11.20
2023-01-21T03:45:43.698Z,12.37
2023-01-21T03:48:14.870Z,11.80
2023-01-21T03:50:45.542Z,12.27
2023-01-21T03:53:16.321Z,13.03
2023-01-21T03:55:44.172Z,12.37
2023-01-21T03:58:12.365Z,11.63
2023-01-21T04:00:40.080Z,10.53
2023-01-21T04:03:08.067Z,12.47
2023-01-21T04:05:38.184Z,11.47
2023-01-21T04:08:05.897Z,11.00
2023-01-21T04:10:35.214Z,10.63
2023-01-21T04:13:02.894Z,10.07
2023-01-21T04:15:30.628Z,10.33
2023-01-21T04:17:58.891Z,10.20
2023-01-21T04:20:26.718Z,10.17
2023-01-21T04:22:54.708Z,10.50
2023-01-21T04:25:22.599Z,10.07
2023-01-21T04:27:51.774Z,10.13
2023-01-21T04:30:19.505Z,9.80
2023-01-21T04:32:47.549Z,9.20
2023-01-21T04:35:15.431Z,8.87
2023-01-21T04:37:43.261Z,8.87
2023-01-21T04:40:12.044Z,8.23
2023-01-21T04:42:39.694Z,9.20
2023-01-21T04:45:12.362Z,8.00
2023-01-21T04:47:41.792Z,7.83
2023-01-21T04:50:10.114Z,8.00
2023-01-21T04:52:37.918Z,7.73
2023-01-21T04:55:06.062Z,9.00
2023-01-21T04:57:33.722Z,7.90
2023-01-21T05:00:01.562Z,8.40
2023-01-21T05:02:30.950Z,7.17
2023-01-21T05:04:58.696Z,8.27
2023-01-21T05:07:26.305Z,7.70
2023-01-21T05:09:54.301Z,8.07
2023-01-21T05:12:21.988Z,7.80
2023-01-21T05:14:53.612Z,7.93
2023-01-21T05:17:21.544Z,8.13
2023-01-21T05:19:51.082Z,7.63
2023-01-21T05:22:19.198Z,7.60
2023-01-21T05:24:46.844Z,7.97
2023-01-21T05:27:16.066Z,7.60
2023-01-21T05:29:43.699Z,8.57
2023-01-21T05:32:11.670Z,8.10
2023-01-21T05:34:39.427Z,6.93
2023-01-21T05:37:08.626Z,7.60
2023-01-21T05:39:37.031Z,7.70
2023-01-21T05:42:04.810Z,7.57
2023-01-21T05:44:32.666Z,6.93
2023-01-21T05:47:00.432Z,7.50
2023-01-21T05:49:28.128Z,7.07
2023-01-21T05:51:55.746Z,7.90
2023-01-21T05:54:25.111Z,7.53
2023-01-21T05:56:54.926Z,7.80
2023-01-21T05:59:22.535Z,7.63
2023-01-21T06:01:50.615Z,7.83
2023-01-21T06:04:18.217Z,7.60
2023-01-21T06:06:46.037Z,7.97
2023-01-21T06:09:13.850Z,8.73
2023-01-21T06:11:42.867Z,8.40
2023-01-21T06:14:12.351Z,8.87
2023-01-21T06:16:40.370Z,7.90
2023-01-21T06:19:08.020Z,7.67
2023-01-21T06:21:35.985Z,8.37
2023-01-21T06:24:04.650Z,9.30
2023-01-21T06:26:34.043Z,8.43
2023-01-21T06:29:03.202Z,9.63
2023-01-21T06:31:31.727Z,9.90
2023-01-21T06:33:59.475Z,10.30
2023-01-21T06:36:27.103Z,10.50
2023-01-21T06:38:56.332Z,10.40
2023-01-21T06:41:23.958Z,10.27
2023-01-21T06:43:51.883Z,10.60
2023-01-21T06:46:20.895Z,11.43
2023-01-21T06:48:48.688Z,11.57
2023-01-21T06:51:16.402Z,11.77
2023-01-21T06:53:44.531Z,11.23
2023-01-21T06:56:12.646Z,11.57
2023-01-21T06:58:40.281Z,11.17
2023-01-21T07:01:07.917Z,11.70
2023-01-21T07:03:37.000Z,11.70
2023-01-21T07:06:04.934Z,12.93
2023-01-21T07:08:33.244Z,11.80
2023-01-21T07:11:00.930Z,13.03
2023-01-21T07:13:28.586Z,12.30
2023-01-21T07:16:01.130Z,13.13
2023-01-21T07:18:28.994Z,13.70
2023-01-21T07:20:58.297Z,12.90
2023-01-21T07:23:26.504Z,12.53
2023-01-21T07:25:54.275Z,15.03
2023-01-21T07:28:21.935Z,12.77
2023-01-21T07:30:49.717Z,14.77
2023-01-21T07:33:17.418Z,14.33
2023-01-21T07:35:45.073Z,14.23
2023-01-21T07:38:14.391Z,14.53
2023-01-21T07:40:41.988Z,13.77
2023-01-21T07:43:10.002Z,13.90
2023-01-21T07:45:38.136Z,14.37
2023-01-21T07:48:06.507Z,13.43
2023-01-21T07:50:34.987Z,14.23
2023-01-21T07:53:02.915Z,14.40
2023-01-21T07:55:32.151Z,15.27
2023-01-21T07:58:00.703Z,15.37
2023-01-21T08:00:29.182Z,15.70
2023-01-21T08:02:57.596Z,14.10
2023-01-21T08:05:26.379Z,15.23
2023-01-21T08:07:54.146Z,15.37
2023-01-21T08:10:22.349Z,14.27
2023-01-21T08:12:51.812Z,13.90
2023-01-21T08:15:19.831Z,14.17
2023-01-21T08:17:48.846Z,12.20
2023-01-21T08:20:16.763Z,13.97
2023-01-21T08:22:44.381Z,13.03
2023-01-21T08:25:12.107Z,13.23
2023-01-21T08:27:40.433Z,13.30
2023-01-21T08:30:10.301Z,13.27
2023-01-21T08:32:38.125Z,14.20
2023-01-21T08:35:06.693Z,13.33
2023-01-21T08:37:34.504Z,13.67
2023-01-21T08:40:02.125Z,13.93
2023-01-21T08:42:30.290Z,13.20
2023-01-21T08:44:57.858Z,12.97
2023-01-21T08:47:26.974Z,12.90
2023-01-21T08:49:54.887Z,13.27
2023-01-21T08:52:22.832Z,12.30
2023-01-21T08:54:50.886Z,12.50
2023-01-21T08:57:18.927Z,13.80
2023-01-21T08:59:46.515Z,12.03
2023-01-21T09:02:14.374Z,12.40
2023-01-21T09:04:43.620Z,12.43
2023-01-21T09:07:11.467Z,12.87
2023-01-21T09:09:39.102Z,13.17
2023-01-21T09:12:07.442Z,12.37
2023-01-21T09:14:35.341Z,11.93
2023-01-21T09:17:03.338Z,13.10
2023-01-21T09:19:31.238Z,14.67
2023-01-21T09:22:00.408Z,12.77
2023-01-21T09:24:28.036Z,12.90
2023-01-21T09:26:56.480Z,13.57
2023-01-21T09:29:24.753Z,12.70
2023-01-21T09:31:52.597Z,12.97
2023-01-21T09:34:20.462Z,11.97
2023-01-21T09:36:48.096Z,13.73
2023-01-21T09:39:17.099Z,12.30
2023-01-21T09:41:46.659Z,12.67
2023-01-21T09:44:16.427Z,12.40
2023-01-21T09:46:48.667Z,13.10
2023-01-21T09:49:19.449Z,12.70
2023-01-21T09:51:52.400Z,12.70
2023-01-21T09:54:25.437Z,12.87
2023-01-21T09:56:58.811Z,12.37
2023-01-21T09:59:33.884Z,13.30
2023-01-21T10:02:05.799Z,12.60
2023-01-21T10:04:36.736Z,12.70
2023-01-21T10:07:07.897Z,13.00
2023-01-21T10:09:46.028Z,12.90
2023-01-21T10:12:25.703Z,13.30
2023-01-21T10:15:03.785Z,12.13
2023-01-21T10:17:38.197Z,14.27
2023-01-21T10:20:12.216Z,12.50
2023-01-21T10:22:41.648Z,13.50
2023-01-21T10:25:17.272Z,12.83
2023-01-21T10:27:48.641Z,13.03
2023-01-21T10:30:24.435Z,12.87
2023-01-21T10:32:54.000Z,13.53
2023-01-21T10:35:26.712Z,12.23
2023-01-21T10:38:02.490Z,13.00
2023-01-21T10:40:48.550Z,12.07
2023-01-21T10:43:20.653Z,12.30
2023-01-21T10:45:51.121Z,12.23
2023-01-21T10:48:21.101Z,13.10
2023-01-21T10:50:52.110Z,11.20
2023-01-21T10:53:23.468Z,11.70
2023-01-21T10:55:56.813Z,13.80
2023-01-21T10:58:27.831Z,13.80
2023-01-21T11:00:59.348Z,12.17
2023-01-21T11:03:32.138Z,13.00
2023-01-21T11:06:02.916Z,12.93
2023-01-21T11:08:31.199Z,11.83
2023-01-21T11:11:00.588Z,11.43
2023-01-21T11:13:30.305Z,11.67
2023-01-21T11:15:59.193Z,12.07
2023-01-21T11:18:28.490Z,12.23
2023-01-21T11:20:57.537Z,11.90
2023-01-21T11:23:27.197Z,12.10
2023-01-21T11:26:02.598Z,11.97
2023-01-21T11:28:31.157Z,12.23
2023-01-21T11:31:05.087Z,12.03
2023-01-21T11:33:32.959Z,13.07
2023-01-21T11:36:10.202Z,11.80
2023-01-21T11:38:38.382Z,11.80
2023-01-21T11:41:14.926Z,11.50
2023-01-21T11:43:43.493Z,12.67
2023-01-21T11:46:22.507Z,12.10
2023-01-21T11:48:50.720Z,11.50
2023-01-21T11:51:19.018Z,11.50
2023-01-21T11:53:47.730Z,11.50
2023-01-21T11:56:17.476Z,11.30
2023-01-21T11:58:45.392Z,11.53
2023-01-21T12:01:19.819Z,11.97
2023-01-21T12:03:51.477Z,11.20
2023-01-21T12:06:21.172Z,10.70
2023-01-21T12:08:50.270Z,10.60
2023-01-21T12:11:22.037Z,11.10
2023-01-21T12:13:52.415Z,9.27
2023-01-21T12:16:26.505Z,10.23
2023-01-21T12:19:03.962Z,10.00
2023-01-21T12:21:40.433Z,10.57
2023-01-21T12:24:15.050Z,9.97
2023-01-21T12:26:46.375Z,9.30
2023-01-21T12:29:22.408Z,8.90
2023-01-21T12:31:53.206Z,8.73
2023-01-21T12:34:24.862Z,7.27
2023-01-21T12:36:54.980Z,8.50
2023-01-21T12:39:25.848Z,8.90
2023-01-21T12:42:08.051Z,8.50
2023-01-21T12:44:38.754Z,8.13
2023-01-21T12:47:10.049Z,7.87
2023-01-21T12:49:52.212Z,7.60
2023-01-21T12:52:22.563Z,9.60
2023-01-21T12:54:55.231Z,7.10
2023-01-21T12:57:26.695Z,8.37
2023-01-21T12:59:57.372Z,7.63
2023-01-21T13:02:28.574Z,7.63
2023-01-21T13:05:19.845Z,7.00
2023-01-21T13:07:50.587Z,6.57
2023-01-21T13:10:21.030Z,6.50
2023-01-21T13:12:52.941Z,6.83
2023-01-21T13:15:22.591Z,6.03
2023-01-21T13:17:51.547Z,7.40
2023-01-21T13:20:20.551Z,6.37
2023-01-21T13:22:51.935Z,5.57
2023-01-21T13:25:22.415Z,6.00
2023-01-21T13:27:55.427Z,6.00
2023-01-21T13:30:27.610Z,6.10
2023-01-21T13:33:03.773Z,6.50
2023-01-21T13:35:34.963Z,6.40
2023-01-21T13:38:06.513Z,6.20
2023-01-21T13:40:39.834Z,6.77
2023-01-21T13:43:15.707Z,5.80
2023-01-21T13:45:47.995Z,6.67
2023-01-21T13:48:21.636Z,6.87
2023-01-21T13:50:53.227Z,7.10
2023-01-21T13:53:32.801Z,6.27
2023-01-21T13:56:07.981Z,6.40
2023-01-21T13:58:39.871Z,6.50
2023-01-21T14:01:11.309Z,6.10
2023-01-21T14:03:43.811Z,5.30
2023-01-21T14:06:12.872Z,6.13
2023-01-21T14:08:42.393Z,5.97
2023-01-21T14:11:12.710Z,6.47
2023-01-21T14:13:58.252Z,6.17
2023-01-21T14:16:40.809Z,5.73
2023-01-21T14:19:18.670Z,5.40
2023-01-21T14:21:52.466Z,5.70
2023-01-21T14:24:30.403Z,4.60
2023-01-21T14:27:04.776Z,5.00
2023-01-21T14:29:36.186Z,5.23
2023-01-21T14:32:06.480Z,5.70
2023-01-21T14:34:41.706Z,4.63
2023-01-21T14:37:12.171Z,5.30
2023-01-21T14:39:45.938Z,5.00
2023-01-21T14:42:16.199Z,4.40
2023-01-21T14:44:45.310Z,4.37
2023-01-21T14:47:14.726Z,3.90
2023-01-21T14:49:45.172Z,5.20
2023-01-21T14:52:16.608Z,5.33
2023-01-21T14:54:45.086Z,4.80
2023-01-21T14:57:27.335Z,3.83
2023-01-21T14:59:56.435Z,4.10
2023-01-21T15:02:28.364Z,3.83
2023-01-21T15:04:58.999Z,3.90
2023-01-21T15:07:29.866Z,3.27
2023-01-21T15:09:59.147Z,6.87
2023-01-21T15:12:29.350Z,3.57
2023-01-21T15:14:58.702Z,4.73
2023-01-21T15:17:45.247Z,5.00
2023-01-21T15:20:31.921Z,4.10
2023-01-21T15:23:20.280Z,4.87
2023-01-21T15:26:04.423Z,4.03
2023-01-21T15:28:40.647Z,3.47
2023-01-21T15:31:09.717Z,5.27
2023-01-21T15:33:40.108Z,4.30
2023-01-21T15:36:13.940Z,5.70
2023-01-21T15:38:43.332Z,4.57
2023-01-21T15:41:13.908Z,4.43
2023-01-21T15:43:44.961Z,4.63
2023-01-21T15:46:20.751Z,5.10
2023-01-21T15:48:57.510Z,5.03
2023-01-21T15:51:30.056Z,5.90
2023-01-21T15:54:07.041Z,5.37
2023-01-21T15:56:48.710Z,4.80
2023-01-21T15:59:25.497Z,6.00
2023-01-21T16:02:08.226Z,4.50
2023-01-21T16:04:40.297Z,5.70
2023-01-21T16:07:14.765Z,5.40
2023-01-21T16:09:52.439Z,5.30
2023-01-21T16:12:24.640Z,6.57
2023-01-21T16:14:59.962Z,4.60
2023-01-21T16:17:35.103Z,5.50
2023-01-21T16:20:05.641Z,6.50
2023-01-21T16:22:36.067Z,6.00
2023-01-21T16:25:07.488Z,6.20
2023-01-21T16:27:36.012Z,8.73
2023-01-21T16:30:05.552Z,8.57
2023-01-21T16:32:37.160Z,6.10
2023-01-21T16:35:06.694Z,7.00
2023-01-21T16:37:34.677Z,6.50
2023-01-21T16:40:26.823Z,5.97
2023-01-21T16:43:05.805Z,6.57
2023-01-21T16:45:33.802Z,6.83
2023-01-21T16:48:01.463Z,7.17
2023-01-21T16:50:30.171Z,7.10
2023-01-21T16:52:59.404Z,8.03
2023-01-21T16:55:29.192Z,7.27
2023-01-21T16:57:57.548Z,7.90
2023-01-21T17:00:27.049Z,7.87
2023-01-21T17:02:54.858Z,7.80
2023-01-21T17:05:22.900Z,8.60
2023-01-21T17:07:53.854Z,7.27
2023-01-21T17:10:22.731Z,6.10
2023-01-21T17:12:53.997Z,5.70
2023-01-21T17:15:26.529Z,5.80
2023-01-21T17:17:55.615Z,5.13
2023-01-21T17:20:38.037Z,5.50
2023-01-21T17:23:07.862Z,7.70
2023-01-21T17:25:35.944Z,8.10
2023-01-21T17:28:16.813Z,6.60
2023-01-21T17:30:44.656Z,6.67
2023-01-21T17:36:18.609Z,6.57
2023-01-21T17:38:47.657Z,6.97
2023-01-21T17:41:24.171Z,5.97
2023-01-21T17:43:56.005Z,5.90
2023-01-21T17:46:24.195Z,6.50
2023-01-21T17:48:53.449Z,5.70
2023-01-21T17:51:22.175Z,5.80
2023-01-21T17:53:52.932Z,5.33
2023-01-21T17:56:34.929Z,5.13
2023-01-21T17:59:04.064Z,6.27
2023-01-21T18:01:32.217Z,6.37
2023-01-21T18:04:00.240Z,5.90
2023-01-21T18:06:29.325Z,6.17
2023-01-21T18:08:58.235Z,6.30
2023-01-21T18:11:26.099Z,6.50
2023-01-21T18:13:53.915Z,8.33
2023-01-21T18:16:23.176Z,7.73
2023-01-21T18:18:53.965Z,5.53
2023-01-21T18:21:22.039Z,6.83
2023-01-21T18:23:50.168Z,6.73
2023-01-21T18:26:20.773Z,4.70
2023-01-21T18:28:48.472Z,6.30
2023-01-21T18:31:16.744Z,5.80
2023-01-21T18:33:45.807Z,8.30
2023-01-21T18:36:13.713Z,6.93
2023-01-21T18:38:41.469Z,5.90
2023-01-21T18:41:09.416Z,5.33
2023-01-21T18:43:37.036Z,5.93
2023-01-21T18:46:05.225Z,5.73
2023-01-21T18:48:33.347Z,6.67
2023-01-21T18:51:02.408Z,7.63
2023-01-21T18:53:31.596Z,11.40
2023-01-21T18:55:59.395Z,8.37
2023-01-21T18:58:27.068Z,7.67
2023-01-21T19:00:55.247Z,6.87
2023-01-21T19:03:23.535Z,5.90
2023-01-21T19:05:51.999Z,6.70
2023-01-21T19:08:24.975Z,6.70
2023-01-21T19:10:52.875Z,5.50
2023-01-21T19:13:21.749Z,6.50
2023-01-21T19:15:49.925Z,6.30
2023-01-21T19:18:18.364Z,5.80
2023-01-21T19:20:45.995Z,5.73
2023-01-21T19:23:15.502Z,6.30
2023-01-21T19:25:46.138Z,6.90
2023-01-21T19:28:13.787Z,7.63
2023-01-21T19:30:45.015Z,7.37
2023-01-21T19:33:13.308Z,6.90
2023-01-21T19:35:43.367Z,7.67
2023-01-21T19:38:12.175Z,6.83
2023-01-21T19:40:40.148Z,6.30
2023-01-21T19:43:10.599Z,6.50
2023-01-21T19:45:38.457Z,7.07
2023-01-21T19:48:06.900Z,6.77
2023-01-21T19:50:34.717Z,7.60
2023-01-21T19:53:02.395Z,7.07
2023-01-21T19:55:32.309Z,7.20
2023-01-21T19:58:01.573Z,6.90
2023-01-21T20:00:32.877Z,7.57
2023-01-21T20:03:00.730Z,7.90
2023-01-21T20:05:29.740Z,7.80
2023-01-21T20:07:57.864Z,8.20
2023-01-21T20:10:26.423Z,8.83
2023-01-21T20:12:54.135Z,8.60
2023-01-21T20:15:22.965Z,9.10
2023-01-21T20:17:53.691Z,8.27
2023-01-21T20:20:22.204Z,7.40
2023-01-21T20:22:49.910Z,7.47
2023-01-21T20:25:18.264Z,8.40
2023-01-21T20:27:49.941Z,8.13
2023-01-21T20:30:18.507Z,8.03
2023-01-21T20:32:47.075Z,7.93
2023-01-21T20:35:17.087Z,8.10
2023-01-21T20:37:47.832Z,7.13
2023-01-21T20:40:16.881Z,9.07
2023-01-21T20:42:44.906Z,8.13
2023-01-21T20:45:13.460Z,7.80
2023-01-21T20:47:49.663Z,8.30
2023-01-21T20:50:22.051Z,7.87
2023-01-21T20:52:50.281Z,7.97
2023-01-21T20:55:21.178Z,7.23
2023-01-21T20:57:49.587Z,8.00
2023-01-21T21:00:19.653Z,7.90
2023-01-21T21:02:48.899Z,7.60
2023-01-21T21:05:18.106Z,9.87
2023-01-21T21:07:47.390Z,9.30
2023-01-21T21:10:19.509Z,7.40
2023-01-21T21:12:48.214Z,7.23
2023-01-21T21:15:16.985Z,8.13
2023-01-21T21:17:46.876Z,7.00
2023-01-21T21:20:17.741Z,6.90
2023-01-21T21:22:47.080Z,7.70
2023-01-21T21:25:16.351Z,7.80
2023-01-21T21:27:44.982Z,8.10
2023-01-21T21:30:14.529Z,7.37
2023-01-21T21:32:42.269Z,8.00
2023-01-21T21:35:19.036Z,8.40
2023-01-21T21:37:48.508Z,8.10
2023-01-21T21:40:16.335Z,7.03
2023-01-21T21:43:02.169Z,7.50
2023-01-21T21:45:29.894Z,7.57
2023-01-21T21:48:15.193Z,8.40
2023-01-21T21:50:44.188Z,7.70
2023-01-21T21:53:13.321Z,7.57
2023-01-21T21:55:41.173Z,7.40
2023-01-21T21:58:08.843Z,7.33
2023-01-21T22:00:36.567Z,6.87
2023-01-21T22:03:06.803Z,7.90
2023-01-21T22:05:35.470Z,6.80
2023-01-21T22:08:04.092Z,8.00
2023-01-21T22:10:34.094Z,8.63
2023-01-21T22:13:01.789Z,8.50
2023-01-21T22:15:29.709Z,8.00
2023-01-21T22:17:57.889Z,7.30
2023-01-21T22:20:25.938Z,6.57
2023-01-21T22:22:53.568Z,8.07
2023-01-21T22:25:21.501Z,7.67
2023-01-21T22:27:50.642Z,8.03
2023-01-21T22:30:18.803Z,7.43
2023-01-21T22:32:46.706Z,6.67
2023-01-21T22:35:14.519Z,7.83
2023-01-21T22:37:42.215Z,7.00
2023-01-21T22:40:10.292Z,6.80
2023-01-21T22:42:40.120Z,7.00
2023-01-21T22:45:09.908Z,7.80
2023-01-21T22:47:37.803Z,8.13
2023-01-21T22:50:05.850Z,8.20
2023-01-21T22:52:33.510Z,8.60
2023-01-21T22:55:01.282Z,7.33
2023-01-21T22:57:28.886Z,7.43
2023-01-21T22:59:56.819Z,7.27
2023-01-21T23:02:26.381Z,8.23
2023-01-21T23:04:54.197Z,8.40
2023-01-21T23:07:21.819Z,7.43
2023-01-21T23:09:50.300Z,7.97
2023-01-21T23:12:19.571Z,9.10
2023-01-21T23:14:47.836Z,7.07
2023-01-21T23:17:16.665Z,7.70
2023-01-21T23:19:47.231Z,7.40
2023-01-21T23:22:14.901Z,8.90
2023-01-21T23:24:42.980Z,7.87
2023-01-21T23:27:10.589Z,7.33
2023-01-21T23:29:38.663Z,8.40
2023-01-21T23:32:06.895Z,8.00
2023-01-21T23:34:34.719Z,8.87
2023-01-21T23:37:03.666Z,7.03
2023-01-21T23:39:31.705Z,7.93
2023-01-21T23:41:59.308Z,7.90
2023-01-21T23:44:27.144Z,7.73
2023-01-21T23:46:55.043Z,9.20
2023-01-21T23:49:22.783Z,8.73
2023-01-21T23:51:50.434Z,8.73
2023-01-21T23:54:20.017Z,7.87
2023-01-21T23:56:47.667Z,8.27
2023-01-21T23:59:15.307Z,8.00
